createdAt,value
2018-07-04T00:01:07.560Z,2.73
2018-07-04T00:03:53.388Z,3.80
2018-07-04T00:06:39.253Z,2.50
2018-07-04T00:09:25.165Z,2.67
2018-07-04T00:12:11.136Z,5.77
2018-07-04T00:14:56.990Z,2.00
2018-07-04T00:17:46.043Z,2.60
2018-07-04T00:20:37.353Z,7.10
2018-07-04T00:23:23.141Z,3.73
2018-07-04T00:26:08.897Z,6.60
2018-07-04T00:28:54.751Z,4.17
2018-07-04T00:31:40.632Z,3.80
2018-07-04T00:34:26.429Z,2.07
2018-07-04T00:37:12.413Z,3.90
2018-07-04T00:39:58.347Z,2.93
2018-07-04T00:42:44.227Z,2.37
2018-07-04T00:45:30.370Z,4.33
2018-07-04T00:48:16.243Z,2.60
2018-07-04T00:51:02.218Z,4.73
2018-07-04T00:53:48.154Z,2.87
2018-07-04T00:56:33.956Z,2.53
2018-07-04T00:59:19.780Z,6.70
2018-07-04T01:02:05.504Z,4.57
2018-07-04T01:04:51.556Z,3.30
2018-07-04T01:07:37.322Z,5.03
2018-07-04T01:10:23.106Z,4.10
2018-07-04T01:13:08.924Z,3.60
2018-07-04T01:15:54.866Z,4.27
2018-07-04T01:18:40.834Z,2.77
2018-07-04T01:21:26.946Z,3.00
2018-07-04T01:24:12.646Z,5.73
2018-07-04T01:26:58.511Z,2.67
2018-07-04T01:29:44.521Z,2.53
2018-07-04T01:32:30.431Z,3.07
2018-07-04T01:35:16.157Z,2.50
2018-07-04T01:38:02.196Z,4.03
2018-07-04T01:40:48.022Z,3.63
2018-07-04T01:43:33.888Z,3.30
2018-07-04T01:46:19.806Z,7.03
2018-07-04T01:49:05.643Z,3.47
2018-07-04T01:51:51.593Z,3.60
2018-07-04T01:54:37.465Z,3.13
2018-07-04T01:57:23.342Z,4.47
2018-07-04T02:00:09.220Z,1.90
2018-07-04T02:02:55.134Z,4.80
2018-07-04T02:05:40.996Z,2.73
2018-07-04T02:08:26.848Z,3.13
2018-07-04T02:11:12.701Z,2.70
2018-07-04T02:13:58.559Z,2.30
2018-07-04T02:16:44.277Z,3.80
2018-07-04T02:19:30.164Z,2.00
2018-07-04T02:22:15.997Z,4.23
2018-07-04T02:25:01.868Z,5.77
2018-07-04T02:27:47.996Z,4.77
2018-07-04T02:30:33.897Z,2.87
2018-07-04T02:33:19.952Z,3.13
2018-07-04T02:36:05.806Z,2.70
2018-07-04T02:38:51.762Z,3.70
2018-07-04T02:41:37.576Z,3.10
2018-07-04T02:44:23.501Z,2.87
2018-07-04T02:47:13.640Z,3.00
2018-07-04T02:49:59.298Z,4.93
2018-07-04T02:52:45.221Z,2.67
2018-07-04T02:55:30.994Z,3.03
2018-07-04T02:58:16.707Z,3.40
2018-07-04T03:01:02.530Z,2.47
2018-07-04T03:03:48.488Z,3.27
2018-07-04T03:06:34.660Z,5.17
2018-07-04T03:09:20.563Z,6.17
2018-07-04T03:12:06.332Z,6.83
2018-07-04T03:14:52.244Z,5.63
2018-07-04T03:17:38.101Z,3.57
2018-07-04T03:20:24.050Z,4.67
2018-07-04T03:23:10.113Z,4.97
2018-07-04T03:25:56.176Z,4.33
2018-07-04T03:28:42.057Z,2.90
2018-07-04T03:31:27.913Z,3.23
2018-07-04T03:34:13.724Z,4.13
2018-07-04T03:36:59.509Z,2.53
2018-07-04T03:39:45.449Z,2.00
2018-07-04T03:42:31.152Z,2.17
2018-07-04T03:45:16.972Z,3.97
2018-07-04T03:48:02.924Z,2.73
2018-07-04T03:50:48.708Z,3.30
2018-07-04T03:53:34.389Z,3.57
2018-07-04T03:56:20.418Z,3.10
2018-07-04T03:59:06.409Z,3.10
2018-07-04T04:01:52.360Z,6.07
2018-07-04T04:04:38.055Z,6.40
2018-07-04T04:07:23.814Z,3.27
2018-07-04T04:10:09.773Z,4.83
2018-07-04T04:12:55.554Z,4.53
2018-07-04T04:15:41.320Z,6.70
2018-07-04T04:18:27.216Z,2.90
2018-07-04T04:21:13.124Z,5.60
2018-07-04T04:23:59.024Z,3.03
2018-07-04T04:26:44.768Z,6.00
2018-07-04T04:29:30.647Z,4.70
2018-07-04T04:32:16.405Z,4.73
2018-07-04T04:35:02.050Z,2.40
2018-07-04T04:37:47.939Z,3.27
2018-07-04T04:40:33.739Z,4.27
2018-07-04T04:43:19.616Z,3.70
2018-07-04T04:46:05.539Z,2.37
2018-07-04T04:48:51.528Z,2.67
2018-07-04T04:51:37.440Z,3.70
2018-07-04T04:54:23.336Z,4.10
2018-07-04T04:57:09.199Z,2.30
2018-07-04T04:59:55.127Z,5.10
2018-07-04T05:02:40.996Z,5.40
2018-07-04T05:05:26.872Z,5.43
2018-07-04T05:08:12.704Z,3.37
2018-07-04T05:10:58.631Z,2.37
2018-07-04T05:13:44.554Z,3.40
2018-07-04T05:16:30.527Z,3.97
2018-07-04T05:19:16.411Z,5.13
2018-07-04T05:22:02.620Z,3.47
2018-07-04T05:24:48.596Z,10.83
2018-07-04T05:27:34.469Z,5.30
2018-07-04T05:30:20.262Z,2.77
2018-07-04T05:33:06.014Z,5.23
2018-07-04T05:35:51.885Z,4.73
2018-07-04T05:38:37.699Z,3.47
2018-07-04T05:41:23.468Z,4.80
2018-07-04T05:44:09.442Z,3.33
2018-07-04T05:46:55.379Z,5.50
2018-07-04T05:49:41.207Z,2.63
2018-07-04T05:52:27.169Z,4.23
2018-07-04T05:55:13.032Z,4.33
2018-07-04T05:57:58.916Z,4.93
2018-07-04T06:00:44.828Z,5.63
2018-07-04T06:03:30.679Z,5.00
2018-07-04T06:06:16.551Z,7.40
2018-07-04T06:09:02.377Z,5.73
2018-07-04T06:11:48.091Z,4.63
2018-07-04T06:14:33.976Z,2.73
2018-07-04T06:17:19.888Z,4.50
2018-07-04T06:20:07.120Z,2.33
2018-07-04T06:22:52.840Z,5.13
2018-07-04T06:25:38.567Z,5.50
2018-07-04T06:28:24.371Z,3.97
2018-07-04T06:31:10.179Z,3.07
2018-07-04T06:33:55.952Z,3.63
2018-07-04T06:36:41.825Z,4.17
2018-07-04T06:39:15.135Z,7.03
2018-07-04T06:41:48.276Z,4.43
2018-07-04T06:44:21.598Z,1.93
2018-07-04T06:46:54.791Z,4.13
2018-07-04T06:49:28.218Z,1.40
2018-07-04T06:52:01.446Z,5.53
2018-07-04T06:54:34.751Z,4.57
2018-07-04T06:57:08.251Z,5.33
2018-07-04T06:59:41.472Z,3.40
2018-07-04T07:02:15.818Z,3.70
2018-07-04T07:05:02.628Z,8.37
2018-07-04T07:07:48.453Z,2.27
2018-07-04T07:10:34.356Z,2.90
2018-07-04T07:13:20.287Z,3.63
2018-07-04T07:16:06.004Z,2.70
2018-07-04T07:18:51.768Z,5.63
2018-07-04T07:21:37.549Z,3.57
2018-07-04T07:24:23.439Z,1.83
2018-07-04T07:27:09.225Z,4.43
2018-07-04T07:29:55.224Z,2.13
2018-07-04T07:32:41.059Z,2.00
2018-07-04T07:35:26.883Z,4.13
2018-07-04T07:38:12.586Z,6.63
2018-07-04T07:40:58.615Z,5.17
2018-07-04T07:43:44.728Z,5.40
2018-07-04T07:46:30.868Z,1.80
2018-07-04T07:49:16.832Z,2.07
2018-07-04T07:52:02.664Z,4.80
2018-07-04T07:54:48.428Z,8.83
2018-07-04T07:57:34.421Z,1.40
2018-07-04T08:00:20.204Z,2.23
2018-07-04T08:03:05.991Z,1.50
2018-07-04T08:05:51.911Z,3.87
2018-07-04T08:08:37.784Z,1.40
2018-07-04T08:11:23.578Z,3.50
2018-07-04T08:14:09.560Z,2.87
2018-07-04T08:16:55.252Z,2.27
2018-07-04T08:19:41.009Z,3.17
2018-07-04T08:22:26.984Z,2.03
2018-07-04T08:25:12.920Z,1.27
2018-07-04T08:27:58.883Z,5.50
2018-07-04T08:30:44.743Z,1.53
2018-07-04T08:33:30.766Z,1.33
2018-07-04T08:36:16.531Z,3.77
2018-07-04T08:39:02.494Z,4.20
2018-07-04T08:41:48.276Z,2.50
2018-07-04T08:44:34.298Z,2.20
2018-07-04T08:47:20.235Z,2.73
2018-07-04T08:50:06.110Z,2.27
2018-07-04T08:52:52.090Z,4.47
2018-07-04T08:55:38.017Z,1.93
2018-07-04T08:58:24.056Z,4.13
2018-07-04T09:01:09.863Z,3.60
2018-07-04T09:03:55.787Z,5.07
2018-07-04T09:06:41.684Z,2.40
2018-07-04T09:09:27.636Z,6.20
2018-07-04T09:12:13.524Z,2.57
2018-07-04T09:14:59.459Z,3.23
2018-07-04T09:17:46.088Z,2.00
2018-07-04T09:20:31.851Z,3.93
2018-07-04T09:23:17.688Z,2.60
2018-07-04T09:26:03.539Z,4.80
2018-07-04T09:28:49.515Z,7.27
2018-07-04T09:31:35.312Z,3.53
2018-07-04T09:34:21.251Z,5.90
2018-07-04T09:37:07.201Z,6.63
2018-07-04T09:39:53.090Z,3.07
2018-07-04T09:42:38.964Z,3.90
2018-07-04T09:45:24.786Z,4.97
2018-07-04T09:48:10.688Z,7.03
2018-07-04T09:50:56.483Z,5.07
2018-07-04T09:53:42.515Z,8.13
2018-07-04T09:56:28.344Z,9.60
2018-07-04T09:59:14.173Z,7.83
2018-07-04T10:02:00.042Z,4.30
2018-07-04T10:04:45.931Z,5.07
2018-07-04T10:07:31.710Z,4.13
2018-07-04T10:10:17.610Z,2.40
2018-07-04T10:13:03.427Z,4.20
2018-07-04T10:15:49.232Z,4.67
2018-07-04T10:18:35.111Z,4.50
2018-07-04T10:21:20.899Z,4.87
2018-07-04T10:24:06.724Z,7.10
2018-07-04T10:26:52.485Z,5.73
2018-07-04T10:29:38.364Z,5.20
2018-07-04T10:32:24.192Z,7.30
2018-07-04T10:35:10.092Z,8.30
2018-07-04T10:37:55.941Z,6.57
2018-07-04T10:40:41.895Z,6.80
2018-07-04T10:43:27.758Z,5.37
2018-07-04T10:46:13.675Z,3.87
2018-07-04T10:48:59.557Z,3.50
2018-07-04T10:51:45.396Z,9.83
2018-07-04T10:54:31.365Z,3.47
2018-07-04T10:57:17.417Z,3.60
2018-07-04T11:00:03.269Z,11.37
2018-07-04T11:02:49.252Z,5.70
2018-07-04T11:05:35.117Z,6.57
2018-07-04T11:08:20.885Z,7.50
2018-07-04T11:11:06.948Z,5.43
2018-07-04T11:13:52.781Z,3.53
2018-07-04T11:16:38.696Z,3.83
2018-07-04T11:19:24.550Z,5.47
2018-07-04T11:22:10.332Z,6.77
2018-07-04T11:24:56.381Z,6.53
2018-07-04T11:27:43.072Z,9.87
2018-07-04T11:30:29.264Z,10.33
2018-07-04T11:33:14.996Z,9.83
2018-07-04T11:36:00.791Z,6.40
2018-07-04T11:38:46.581Z,6.83
2018-07-04T11:41:32.316Z,7.93
2018-07-04T11:44:18.160Z,7.20
2018-07-04T11:46:51.492Z,6.63
2018-07-04T11:49:24.919Z,6.97
2018-07-04T11:51:58.429Z,7.60
2018-07-04T11:54:31.741Z,11.27
2018-07-04T11:57:05.298Z,7.63
2018-07-04T11:59:38.692Z,5.87
2018-07-04T12:02:12.148Z,9.47
2018-07-04T12:04:58.203Z,6.80
2018-07-04T12:07:31.556Z,4.50
2018-07-04T12:10:05.079Z,5.77
2018-07-04T12:12:38.429Z,5.50
2018-07-04T12:15:11.797Z,3.33
2018-07-04T12:17:45.144Z,7.00
2018-07-04T12:20:18.452Z,4.53
2018-07-04T12:22:51.777Z,7.53
2018-07-04T12:25:25.214Z,4.77
2018-07-04T12:27:58.485Z,6.97
2018-07-04T12:30:31.800Z,7.17
2018-07-04T12:33:05.276Z,2.87
2018-07-04T12:35:38.779Z,3.73
2018-07-04T12:38:12.216Z,2.70
2018-07-04T12:40:45.541Z,3.10
2018-07-04T12:43:19.073Z,6.43
2018-07-04T12:45:52.521Z,3.97
2018-07-04T12:48:26.038Z,4.07
2018-07-04T12:50:59.569Z,7.50
2018-07-04T12:53:32.989Z,5.90
2018-07-04T12:56:19.036Z,5.27
2018-07-04T12:59:04.897Z,6.13
2018-07-04T13:01:50.754Z,4.87
2018-07-04T13:04:36.664Z,7.33
2018-07-04T13:07:23.064Z,8.53
2018-07-04T13:10:08.960Z,7.73
2018-07-04T13:12:54.629Z,7.67
2018-07-04T13:15:40.501Z,8.63
2018-07-04T13:18:26.380Z,8.10
2018-07-04T13:21:12.266Z,11.50
2018-07-04T13:23:58.127Z,10.07
2018-07-04T13:26:43.997Z,7.20
2018-07-04T13:29:29.853Z,9.47
2018-07-04T13:32:15.915Z,9.50
2018-07-04T13:35:01.751Z,8.70
2018-07-04T13:37:47.640Z,8.00
2018-07-04T13:40:33.372Z,5.93
2018-07-04T13:43:19.268Z,8.53
2018-07-04T13:46:05.094Z,6.93
2018-07-04T13:48:51.101Z,4.73
2018-07-04T13:51:37.021Z,8.37
2018-07-04T13:54:23.060Z,10.40
2018-07-04T13:57:08.888Z,5.93
2018-07-04T13:59:54.576Z,4.87
2018-07-04T14:02:40.482Z,5.13
2018-07-04T14:05:26.085Z,3.73
2018-07-04T14:08:12.141Z,6.37
2018-07-04T14:10:58.084Z,6.33
2018-07-04T14:13:44.088Z,7.00
2018-07-04T14:16:29.856Z,8.57
2018-07-04T14:19:15.767Z,8.07
2018-07-04T14:22:01.532Z,9.93
2018-07-04T14:24:47.309Z,6.90
2018-07-04T14:27:33.112Z,9.60
2018-07-04T14:30:19.098Z,7.93
2018-07-04T14:33:04.997Z,6.23
2018-07-04T14:35:50.753Z,7.20
2018-07-04T14:38:36.506Z,9.80
2018-07-04T14:41:22.361Z,12.33
2018-07-04T14:44:08.330Z,13.93
2018-07-04T14:46:53.900Z,8.73
2018-07-04T14:49:39.892Z,9.13
2018-07-04T14:52:25.847Z,9.37
2018-07-04T14:55:11.624Z,12.53
2018-07-04T14:57:57.636Z,9.20
2018-07-04T15:00:43.496Z,9.30
2018-07-04T15:03:29.439Z,9.87
2018-07-04T15:06:15.258Z,7.83
2018-07-04T15:09:01.131Z,9.00
2018-07-04T15:11:47.022Z,10.17
2018-07-04T15:14:32.893Z,9.67
2018-07-04T15:17:18.835Z,8.00
2018-07-04T15:20:04.860Z,7.27
2018-07-04T15:22:50.926Z,9.30
2018-07-04T15:25:36.813Z,9.43
2018-07-04T15:28:22.753Z,8.50
2018-07-04T15:31:08.640Z,5.50
2018-07-04T15:33:54.381Z,7.87
2018-07-04T15:36:40.211Z,7.33
2018-07-04T15:39:26.063Z,9.90
2018-07-04T15:42:11.917Z,9.90
2018-07-04T15:44:57.743Z,6.10
2018-07-04T15:47:43.520Z,7.93
2018-07-04T15:50:29.498Z,6.47
2018-07-04T15:53:15.368Z,7.80
2018-07-04T15:56:01.217Z,8.67
2018-07-04T15:58:47.059Z,6.97
2018-07-04T16:01:32.920Z,17.83
2018-07-04T16:04:18.792Z,7.00
2018-07-04T16:07:04.741Z,6.27
2018-07-04T16:09:50.444Z,9.17
2018-07-04T16:12:36.357Z,10.70
2018-07-04T16:15:22.136Z,8.93
2018-07-04T16:18:07.968Z,8.63
2018-07-04T16:20:53.749Z,6.13
2018-07-04T16:23:39.580Z,7.20
2018-07-04T16:26:25.632Z,7.60
2018-07-04T16:29:11.596Z,9.53
2018-07-04T16:31:57.575Z,8.57
2018-07-04T16:34:43.495Z,7.60
2018-07-04T16:37:29.344Z,9.10
2018-07-04T16:40:15.094Z,8.80
2018-07-04T16:43:00.933Z,9.73
2018-07-04T16:45:46.792Z,7.33
2018-07-04T16:48:32.839Z,7.50
2018-07-04T16:51:18.785Z,8.63
2018-07-04T16:54:04.571Z,8.43
2018-07-04T16:56:50.641Z,7.47
2018-07-04T16:59:36.633Z,8.57
2018-07-04T17:02:22.384Z,8.47
2018-07-04T17:05:07.980Z,8.13
2018-07-04T17:07:53.812Z,7.63
2018-07-04T17:10:39.705Z,8.40
2018-07-04T17:13:25.464Z,8.77
2018-07-04T17:16:11.241Z,8.03
2018-07-04T17:18:57.156Z,7.37
2018-07-04T17:21:42.968Z,11.03
2018-07-04T17:24:28.811Z,7.30
2018-07-04T17:27:14.544Z,6.30
2018-07-04T17:30:00.345Z,8.97
2018-07-04T17:32:46.283Z,10.73
2018-07-04T17:35:32.169Z,8.43
2018-07-04T17:38:18.021Z,7.57
2018-07-04T17:41:03.775Z,7.87
2018-07-04T17:43:49.592Z,8.73
2018-07-04T17:46:35.336Z,6.77
2018-07-04T17:49:21.147Z,6.83
2018-07-04T17:52:06.933Z,7.83
2018-07-04T17:54:52.677Z,7.33
2018-07-04T17:57:38.632Z,8.33
2018-07-04T18:00:24.396Z,8.60
2018-07-04T18:03:09.992Z,6.70
2018-07-04T18:05:55.979Z,8.13
2018-07-04T18:08:41.959Z,7.93
2018-07-04T18:11:27.976Z,6.70
2018-07-04T18:14:13.956Z,6.30
2018-07-04T18:16:59.825Z,5.97
2018-07-04T18:19:45.616Z,6.73
2018-07-04T18:22:31.592Z,8.97
2018-07-04T18:25:17.382Z,7.77
2018-07-04T18:28:03.398Z,5.77
2018-07-04T18:30:49.264Z,8.10
2018-07-04T18:33:34.929Z,8.37
2018-07-04T18:36:20.645Z,6.23
2018-07-04T18:39:06.641Z,4.90
2018-07-04T18:41:52.436Z,9.80
2018-07-04T18:44:38.246Z,7.23
2018-07-04T18:47:24.121Z,5.60
2018-07-04T18:50:09.904Z,6.43
2018-07-04T18:52:55.773Z,5.83
2018-07-04T18:55:41.576Z,9.03
2018-07-04T18:58:27.473Z,7.47
2018-07-04T19:01:13.542Z,8.07
2018-07-04T19:03:59.489Z,7.23
2018-07-04T19:06:45.339Z,6.97
2018-07-04T19:09:31.279Z,8.83
2018-07-04T19:12:17.013Z,7.87
2018-07-04T19:15:02.937Z,8.43
2018-07-04T19:17:48.914Z,5.43
2018-07-04T19:20:34.668Z,8.63
2018-07-04T19:23:20.565Z,7.93
2018-07-04T19:26:06.336Z,5.93
2018-07-04T19:28:52.125Z,9.10
2018-07-04T19:31:38.057Z,9.07
2018-07-04T19:34:23.977Z,10.23
2018-07-04T19:37:09.931Z,6.73
2018-07-04T19:39:55.845Z,9.27
2018-07-04T19:42:41.740Z,9.57
2018-07-04T19:45:27.600Z,9.50
2018-07-04T19:48:13.398Z,8.83
2018-07-04T19:50:59.251Z,6.83
2018-07-04T19:53:45.035Z,8.13
2018-07-04T19:56:30.824Z,8.07
2018-07-04T19:59:16.749Z,12.10
2018-07-04T20:02:02.621Z,8.83
2018-07-04T20:04:48.540Z,7.50
2018-07-04T20:07:34.284Z,6.87
2018-07-04T20:10:20.036Z,6.57
2018-07-04T20:13:05.961Z,7.73
2018-07-04T20:15:51.821Z,6.97
2018-07-04T20:18:37.749Z,10.50
2018-07-04T20:21:23.649Z,6.70
2018-07-04T20:24:09.456Z,8.67
2018-07-04T20:26:55.413Z,7.83
2018-07-04T20:29:41.320Z,7.77
2018-07-04T20:32:27.164Z,9.23
2018-07-04T20:35:13.185Z,8.10
2018-07-04T20:37:58.963Z,7.33
2018-07-04T20:40:44.876Z,10.77
2018-07-04T20:43:31.094Z,7.20
2018-07-04T20:46:16.736Z,8.37
2018-07-04T20:49:02.545Z,7.33
2018-07-04T20:51:48.354Z,8.03
2018-07-04T20:54:34.177Z,7.67
2018-07-04T20:57:19.946Z,6.90
2018-07-04T21:00:05.796Z,8.10
2018-07-04T21:02:51.811Z,7.20
2018-07-04T21:05:37.755Z,8.97
2018-07-04T21:08:23.713Z,6.87
2018-07-04T21:11:09.456Z,7.97
2018-07-04T21:13:55.932Z,7.27
2018-07-04T21:16:42.420Z,8.63
2018-07-04T21:19:28.450Z,8.07
2018-07-04T21:22:14.323Z,6.93
2018-07-04T21:25:00.117Z,10.67
2018-07-04T21:27:46.052Z,8.77
2018-07-04T21:30:32.000Z,9.70
2018-07-04T21:33:17.831Z,7.57
2018-07-04T21:36:03.764Z,6.90
2018-07-04T21:38:49.629Z,8.27
2018-07-04T21:41:35.564Z,10.00
2018-07-04T21:44:21.308Z,7.90
2018-07-04T21:47:07.363Z,8.10
2018-07-04T21:49:53.211Z,6.10
2018-07-04T21:52:39.118Z,6.07
2018-07-04T21:55:24.876Z,7.10
2018-07-04T21:58:10.770Z,5.60
2018-07-04T22:00:56.641Z,6.37
2018-07-04T22:03:42.702Z,6.20
2018-07-04T22:06:28.478Z,5.97
2018-07-04T22:09:14.337Z,7.10
2018-07-04T22:12:00.369Z,6.33
2018-07-04T22:14:46.380Z,7.23
2018-07-04T22:17:32.149Z,6.97
2018-07-04T22:20:18.107Z,10.70
2018-07-04T22:23:04.068Z,6.77
2018-07-04T22:25:50.069Z,5.27
2018-07-04T22:28:35.868Z,6.70
2018-07-04T22:31:21.772Z,6.20
2018-07-04T22:34:07.605Z,5.90
2018-07-04T22:36:53.280Z,7.33
2018-07-04T22:39:39.205Z,6.90
2018-07-04T22:42:25.099Z,6.40
2018-07-04T22:45:11.008Z,6.20
2018-07-04T22:47:56.812Z,6.37
2018-07-04T22:50:42.708Z,7.30
2018-07-04T22:53:28.572Z,6.73
2018-07-04T22:56:15.447Z,7.47
2018-07-04T22:59:01.321Z,7.77
2018-07-04T23:01:47.354Z,7.77
2018-07-04T23:04:33.141Z,7.47
2018-07-04T23:07:19.277Z,7.10
2018-07-04T23:10:05.316Z,7.63
2018-07-04T23:12:50.952Z,8.30
2018-07-04T23:15:36.800Z,8.27
2018-07-04T23:18:22.572Z,8.27
2018-07-04T23:21:08.725Z,7.93
2018-07-04T23:23:54.542Z,9.50
2018-07-04T23:26:40.345Z,7.37
2018-07-04T23:29:26.218Z,8.73
2018-07-04T23:32:11.848Z,6.70
2018-07-04T23:34:57.684Z,7.57
2018-07-04T23:37:43.541Z,7.87
2018-07-04T23:40:29.480Z,6.67
2018-07-04T23:43:15.269Z,6.23
2018-07-04T23:46:01.151Z,7.47
2018-07-04T23:48:46.988Z,6.90
2018-07-04T23:51:32.785Z,7.23
2018-07-04T23:54:18.681Z,6.30
2018-07-04T23:57:04.396Z,7.17
2018-07-04T23:59:50.232Z,7.17
